Terminal Aerodrome Forecast
Issued by NWS Brownsville, TX

Home | Current Version | Previous Version | Text Only | Print | Product List | Glossary On
Versions: 1 2 3 4 5 6 7 8 9 10 11 12 13 14 15
000
FTUS44 KBRO 301120
TAFHRL
TAF
KHRL 301120Z 3012/0112 13006KT P6SM VCSH FEW020 BKN100 OVC250
     FM301400 16012G18KT P6SM VCTS SCT025 BKN035CB
      TEMPO 3015/3019 VRB15G30KT 4SM TSRA BR
     FM010100 14009KT P6SM FEW025 SCT100 BKN250=

USA.gov is the U.S. government's official web portal to all federal, state and local government web resources and services.